sensor_id;sensor_type;location;lat;lon;timestamp;temperature;humidity
7588;DHT22;3835;48.850;8.938;2023-07-30T00:01:42;16.80;99.90
7588;DHT22;3835;48.850;8.938;2023-07-30T00:04:09;16.80;99.90
7588;DHT22;3835;48.850;8.938;2023-07-30T00:06:37;16.80;99.90
7588;DHT22;3835;48.850;8.938;2023-07-30T00:09:04;16.80;99.90
7588;DHT22;3835;48.850;8.938;2023-07-30T00:11:33;16.80;99.90
7588;DHT22;3835;48.850;8.938;2023-07-30T00:14:01;16.70;99.90
7588;DHT22;3835;48.850;8.938;2023-07-30T00:16:30;16.70;99.90
7588;DHT22;3835;48.850;8.938;2023-07-30T00:18:59;16.70;99.90
7588;DHT22;3835;48.850;8.938;2023-07-30T00:21:26;16.60;99.90
7588;DHT22;3835;48.850;8.938;2023-07-30T00:23:57;16.60;99.90
7588;DHT22;3835;48.850;8.938;2023-07-30T00:26:26;16.50;99.90
7588;DHT22;3835;48.850;8.938;2023-07-30T00:28:56;16.50;99.90
7588;DHT22;3835;48.850;8.938;2023-07-30T00:31:24;16.50;99.90
7588;DHT22;3835;48.850;8.938;2023-07-30T00:33:51;16.40;99.90
7588;DHT22;3835;48.850;8.938;2023-07-30T00:36:18;16.40;99.90
7588;DHT22;3835;48.850;8.938;2023-07-30T00:38:47;16.30;99.90
7588;DHT22;3835;48.850;8.938;2023-07-30T00:41:16;16.30;99.90
7588;DHT22;3835;48.850;8.938;2023-07-30T00:43:46;16.30;99.90
7588;DHT22;3835;48.850;8.938;2023-07-30T00:46:15;16.30;99.90
7588;DHT22;3835;48.850;8.938;2023-07-30T00:48:42;16.30;99.90
7588;DHT22;3835;48.850;8.938;2023-07-30T00:51:13;16.30;99.90
7588;DHT22;3835;48.850;8.938;2023-07-30T00:53:42;16.30;99.90
7588;DHT22;3835;48.850;8.938;2023-07-30T00:56:10;16.30;99.90
7588;DHT22;3835;48.850;8.938;2023-07-30T00:58:41;16.20;99.90
7588;DHT22;3835;48.850;8.938;2023-07-30T01:01:11;16.20;99.90
7588;DHT22;3835;48.850;8.938;2023-07-30T01:03:40;16.20;99.90
7588;DHT22;3835;48.850;8.938;2023-07-30T01:06:08;16.20;99.90
7588;DHT22;3835;48.850;8.938;2023-07-30T01:08:37;16.20;99.90
7588;DHT22;3835;48.850;8.938;2023-07-30T01:11:07;16.20;99.90
7588;DHT22;3835;48.850;8.938;2023-07-30T01:13:39;16.10;99.90
7588;DHT22;3835;48.850;8.938;2023-07-30T01:16:09;16.20;99.90
7588;DHT22;3835;48.850;8.938;2023-07-30T01:18:38;16.20;99.90
7588;DHT22;3835;48.850;8.938;2023-07-30T01:21:06;16.20;99.90
7588;DHT22;3835;48.850;8.938;2023-07-30T01:23:33;16.10;99.90
7588;DHT22;3835;48.850;8.938;2023-07-30T01:26:04;16.10;99.90
7588;DHT22;3835;48.850;8.938;2023-07-30T01:28:42;16.10;99.90
7588;DHT22;3835;48.850;8.938;2023-07-30T01:31:11;16.10;99.90
7588;DHT22;3835;48.850;8.938;2023-07-30T01:33:41;16.10;99.90
7588;DHT22;3835;48.850;8.938;2023-07-30T01:36:12;16.20;99.90
7588;DHT22;3835;48.850;8.938;2023-07-30T01:38:42;16.20;99.90
7588;DHT22;3835;48.850;8.938;2023-07-30T01:41:09;16.20;99.90
7588;DHT22;3835;48.850;8.938;2023-07-30T01:43:37;16.20;99.90
7588;DHT22;3835;48.850;8.938;2023-07-30T01:46:03;16.20;99.90
7588;DHT22;3835;48.850;8.938;2023-07-30T01:48:30;16.20;99.90
7588;DHT22;3835;48.850;8.938;2023-07-30T01:50:57;16.20;99.90
7588;DHT22;3835;48.850;8.938;2023-07-30T01:53:25;16.20;99.90
7588;DHT22;3835;48.850;8.938;2023-07-30T01:55:52;16.20;99.90
7588;DHT22;3835;48.850;8.938;2023-07-30T01:58:18;16.30;99.90
7588;DHT22;3835;48.850;8.938;2023-07-30T02:00:45;16.30;99.90
7588;DHT22;3835;48.850;8.938;2023-07-30T02:03:12;16.30;99.90
7588;DHT22;3835;48.850;8.938;2023-07-30T02:05:39;16.40;99.90
7588;DHT22;3835;48.850;8.938;2023-07-30T02:08:05;16.40;99.90
7588;DHT22;3835;48.850;8.938;2023-07-30T02:10:33;16.40;99.90
7588;DHT22;3835;48.850;8.938;2023-07-30T02:13:00;16.40;99.90
7588;DHT22;3835;48.850;8.938;2023-07-30T02:15:27;16.40;99.90
7588;DHT22;3835;48.850;8.938;2023-07-30T02:17:54;16.40;99.90
7588;DHT22;3835;48.850;8.938;2023-07-30T02:20:21;16.40;99.90
7588;DHT22;3835;48.850;8.938;2023-07-30T02:22:47;16.40;99.90
7588;DHT22;3835;48.850;8.938;2023-07-30T02:25:14;16.30;99.90
7588;DHT22;3835;48.850;8.938;2023-07-30T02:27:42;16.30;99.90
7588;DHT22;3835;48.850;8.938;2023-07-30T02:30:10;16.30;99.90
7588;DHT22;3835;48.850;8.938;2023-07-30T02:32:36;16.30;99.90
7588;DHT22;3835;48.850;8.938;2023-07-30T02:35:04;16.20;99.90
7588;DHT22;3835;48.850;8.938;2023-07-30T02:37:31;16.20;99.90
7588;DHT22;3835;48.850;8.938;2023-07-30T02:39:57;16.20;99.90
7588;DHT22;3835;48.850;8.938;2023-07-30T02:42:25;16.10;99.90
7588;DHT22;3835;48.850;8.938;2023-07-30T02:44:53;16.10;99.90
7588;DHT22;3835;48.850;8.938;2023-07-30T02:47:19;16.20;99.90
7588;DHT22;3835;48.850;8.938;2023-07-30T02:49:46;16.20;99.90
7588;DHT22;3835;48.850;8.938;2023-07-30T02:52:13;16.20;99.90
7588;DHT22;3835;48.850;8.938;2023-07-30T02:54:40;16.20;99.90
7588;DHT22;3835;48.850;8.938;2023-07-30T02:57:06;16.20;99.90
7588;DHT22;3835;48.850;8.938;2023-07-30T02:59:33;16.20;99.90
7588;DHT22;3835;48.850;8.938;2023-07-30T03:02:03;16.10;99.90
7588;DHT22;3835;48.850;8.938;2023-07-30T03:04:31;16.10;99.90
7588;DHT22;3835;48.850;8.938;2023-07-30T03:06:57;16.10;99.90
7588;DHT22;3835;48.850;8.938;2023-07-30T03:09:24;16.00;99.90
7588;DHT22;3835;48.850;8.938;2023-07-30T03:11:52;16.10;99.90
7588;DHT22;3835;48.850;8.938;2023-07-30T03:14:19;16.00;99.90
7588;DHT22;3835;48.850;8.938;2023-07-30T03:16:46;16.00;99.90
7588;DHT22;3835;48.850;8.938;2023-07-30T03:19:15;16.00;99.90
7588;DHT22;3835;48.850;8.938;2023-07-30T03:21:41;16.10;99.90
7588;DHT22;3835;48.850;8.938;2023-07-30T03:24:08;16.10;99.90
7588;DHT22;3835;48.850;8.938;2023-07-30T03:26:35;16.10;99.90
7588;DHT22;3835;48.850;8.938;2023-07-30T03:29:02;16.10;99.90
7588;DHT22;3835;48.850;8.938;2023-07-30T03:31:28;16.10;99.90
7588;DHT22;3835;48.850;8.938;2023-07-30T03:33:55;16.10;99.90
7588;DHT22;3835;48.850;8.938;2023-07-30T03:36:23;16.10;99.90
7588;DHT22;3835;48.850;8.938;2023-07-30T03:38:50;16.20;99.90
7588;DHT22;3835;48.850;8.938;2023-07-30T03:41:17;16.20;99.90
7588;DHT22;3835;48.850;8.938;2023-07-30T03:43:43;16.20;99.90
7588;DHT22;3835;48.850;8.938;2023-07-30T03:46:10;16.20;99.90
7588;DHT22;3835;48.850;8.938;2023-07-30T03:48:37;16.20;99.90
7588;DHT22;3835;48.850;8.938;2023-07-30T03:51:04;16.20;99.90
7588;DHT22;3835;48.850;8.938;2023-07-30T03:53:34;16.20;99.90
7588;DHT22;3835;48.850;8.938;2023-07-30T03:56:01;16.30;99.90
7588;DHT22;3835;48.850;8.938;2023-07-30T03:58:28;16.30;99.90
7588;DHT22;3835;48.850;8.938;2023-07-30T04:00:56;16.30;99.90
7588;DHT22;3835;48.850;8.938;2023-07-30T04:03:23;16.40;99.90
7588;DHT22;3835;48.850;8.938;2023-07-30T04:05:49;16.40;99.90
7588;DHT22;3835;48.850;8.938;2023-07-30T04:08:16;16.50;99.90
7588;DHT22;3835;48.850;8.938;2023-07-30T04:10:44;16.50;99.90
7588;DHT22;3835;48.850;8.938;2023-07-30T04:13:11;16.50;99.90
7588;DHT22;3835;48.850;8.938;2023-07-30T04:15:38;16.50;99.90
7588;DHT22;3835;48.850;8.938;2023-07-30T04:18:04;16.50;99.90
7588;DHT22;3835;48.850;8.938;2023-07-30T04:20:31;16.50;99.90
7588;DHT22;3835;48.850;8.938;2023-07-30T04:22:58;16.50;99.90
7588;DHT22;3835;48.850;8.938;2023-07-30T04:25:24;16.60;99.90
7588;DHT22;3835;48.850;8.938;2023-07-30T04:27:53;16.60;99.90
7588;DHT22;3835;48.850;8.938;2023-07-30T04:30:19;16.60;99.90
7588;DHT22;3835;48.850;8.938;2023-07-30T04:32:46;16.60;99.90
7588;DHT22;3835;48.850;8.938;2023-07-30T04:35:14;16.60;99.90
7588;DHT22;3835;48.850;8.938;2023-07-30T04:37:41;16.60;99.90
7588;DHT22;3835;48.850;8.938;2023-07-30T04:40:09;16.70;99.90
7588;DHT22;3835;48.850;8.938;2023-07-30T04:42:35;16.70;99.90
7588;DHT22;3835;48.850;8.938;2023-07-30T04:45:04;16.70;99.90
7588;DHT22;3835;48.850;8.938;2023-07-30T04:47:31;16.70;99.90
7588;DHT22;3835;48.850;8.938;2023-07-30T04:49:58;16.70;99.90
7588;DHT22;3835;48.850;8.938;2023-07-30T04:52:25;16.70;99.90
7588;DHT22;3835;48.850;8.938;2023-07-30T04:54:51;16.70;99.90
7588;DHT22;3835;48.850;8.938;2023-07-30T04:57:18;16.70;99.90
7588;DHT22;3835;48.850;8.938;2023-07-30T04:59:45;16.60;99.90
7588;DHT22;3835;48.850;8.938;2023-07-30T05:02:13;16.60;99.90
7588;DHT22;3835;48.850;8.938;2023-07-30T05:04:40;16.50;99.90
7588;DHT22;3835;48.850;8.938;2023-07-30T05:07:06;16.50;99.90
7588;DHT22;3835;48.850;8.938;2023-07-30T05:09:33;16.40;99.90
7588;DHT22;3835;48.850;8.938;2023-07-30T05:12:00;16.40;99.90
7588;DHT22;3835;48.850;8.938;2023-07-30T05:14:27;16.40;99.90
7588;DHT22;3835;48.850;8.938;2023-07-30T05:16:54;16.30;99.90
7588;DHT22;3835;48.850;8.938;2023-07-30T05:19:22;16.30;99.90
7588;DHT22;3835;48.850;8.938;2023-07-30T05:21:48;16.20;99.90
7588;DHT22;3835;48.850;8.938;2023-07-30T05:24:15;16.20;99.90
7588;DHT22;3835;48.850;8.938;2023-07-30T05:26:42;16.30;99.90
7588;DHT22;3835;48.850;8.938;2023-07-30T05:29:09;16.30;99.90
7588;DHT22;3835;48.850;8.938;2023-07-30T05:31:35;16.40;99.90
7588;DHT22;3835;48.850;8.938;2023-07-30T05:34:02;16.50;99.90
7588;DHT22;3835;48.850;8.938;2023-07-30T05:36:30;16.50;99.90
7588;DHT22;3835;48.850;8.938;2023-07-30T05:38:57;16.50;99.90
7588;DHT22;3835;48.850;8.938;2023-07-30T05:41:24;16.50;99.90
7588;DHT22;3835;48.850;8.938;2023-07-30T05:43:50;16.60;99.90
7588;DHT22;3835;48.850;8.938;2023-07-30T05:46:17;16.60;99.90
7588;DHT22;3835;48.850;8.938;2023-07-30T05:48:44;16.60;99.90
7588;DHT22;3835;48.850;8.938;2023-07-30T05:51:11;16.60;99.90
7588;DHT22;3835;48.850;8.938;2023-07-30T05:53:39;16.60;99.90
7588;DHT22;3835;48.850;8.938;2023-07-30T05:56:05;16.60;99.90
7588;DHT22;3835;48.850;8.938;2023-07-30T05:58:32;16.60;99.90
7588;DHT22;3835;48.850;8.938;2023-07-30T06:00:59;16.70;99.90
7588;DHT22;3835;48.850;8.938;2023-07-30T06:03:26;16.80;99.90
7588;DHT22;3835;48.850;8.938;2023-07-30T06:05:52;17.00;99.90
7588;DHT22;3835;48.850;8.938;2023-07-30T06:08:19;17.20;99.90
7588;DHT22;3835;48.850;8.938;2023-07-30T06:10:47;17.50;99.90
7588;DHT22;3835;48.850;8.938;2023-07-30T06:13:14;17.90;99.90
7588;DHT22;3835;48.850;8.938;2023-07-30T06:15:41;18.10;99.90
7588;DHT22;3835;48.850;8.938;2023-07-30T06:18:07;18.30;99.90
7588;DHT22;3835;48.850;8.938;2023-07-30T06:20:34;18.50;99.90
7588;DHT22;3835;48.850;8.938;2023-07-30T06:23:01;18.70;99.90
7588;DHT22;3835;48.850;8.938;2023-07-30T06:25:29;18.90;99.90
7588;DHT22;3835;48.850;8.938;2023-07-30T06:27:57;19.10;99.90
7588;DHT22;3835;48.850;8.938;2023-07-30T06:30:24;19.40;99.90
7588;DHT22;3835;48.850;8.938;2023-07-30T06:32:51;19.60;99.90
7588;DHT22;3835;48.850;8.938;2023-07-30T06:35:18;19.60;99.90
7588;DHT22;3835;48.850;8.938;2023-07-30T06:37:45;19.90;99.90
7588;DHT22;3835;48.850;8.938;2023-07-30T06:40:11;20.30;99.90
7588;DHT22;3835;48.850;8.938;2023-07-30T06:42:38;20.60;99.90
7588;DHT22;3835;48.850;8.938;2023-07-30T06:45:08;20.70;99.90
7588;DHT22;3835;48.850;8.938;2023-07-30T06:47:35;20.80;99.90
7588;DHT22;3835;48.850;8.938;2023-07-30T06:50:01;20.80;99.90
7588;DHT22;3835;48.850;8.938;2023-07-30T06:52:29;20.60;99.90
7588;DHT22;3835;48.850;8.938;2023-07-30T06:54:56;20.10;99.90
7588;DHT22;3835;48.850;8.938;2023-07-30T06:57:23;19.80;99.90
7588;DHT22;3835;48.850;8.938;2023-07-30T06:59:49;19.70;99.90
7588;DHT22;3835;48.850;8.938;2023-07-30T07:02:17;19.60;99.90
7588;DHT22;3835;48.850;8.938;2023-07-30T07:04:44;19.60;99.90
7588;DHT22;3835;48.850;8.938;2023-07-30T07:07:11;19.50;99.90
7588;DHT22;3835;48.850;8.938;2023-07-30T07:09:38;19.40;99.90
7588;DHT22;3835;48.850;8.938;2023-07-30T07:12:05;19.30;99.90
7588;DHT22;3835;48.850;8.938;2023-07-30T07:14:32;19.20;99.90
7588;DHT22;3835;48.850;8.938;2023-07-30T07:16:59;18.90;99.90
7588;DHT22;3835;48.850;8.938;2023-07-30T07:19:27;18.80;99.90
7588;DHT22;3835;48.850;8.938;2023-07-30T07:21:54;18.60;99.90
7588;DHT22;3835;48.850;8.938;2023-07-30T07:24:20;18.40;99.90
7588;DHT22;3835;48.850;8.938;2023-07-30T07:26:47;18.20;99.90
7588;DHT22;3835;48.850;8.938;2023-07-30T07:29:14;18.20;99.90
7588;DHT22;3835;48.850;8.938;2023-07-30T07:31:41;18.10;99.90
7588;DHT22;3835;48.850;8.938;2023-07-30T07:34:08;18.00;99.90
7588;DHT22;3835;48.850;8.938;2023-07-30T07:36:36;18.10;99.90
7588;DHT22;3835;48.850;8.938;2023-07-30T07:39:03;18.30;99.90
7588;DHT22;3835;48.850;8.938;2023-07-30T07:41:30;18.40;99.90
7588;DHT22;3835;48.850;8.938;2023-07-30T07:43:57;18.50;99.90
7588;DHT22;3835;48.850;8.938;2023-07-30T07:46:23;18.50;99.90
7588;DHT22;3835;48.850;8.938;2023-07-30T07:48:52;18.50;99.90
7588;DHT22;3835;48.850;8.938;2023-07-30T07:51:19;18.50;99.90
7588;DHT22;3835;48.850;8.938;2023-07-30T07:53:47;18.60;99.90
7588;DHT22;3835;48.850;8.938;2023-07-30T07:56:14;18.50;99.90
7588;DHT22;3835;48.850;8.938;2023-07-30T07:58:41;18.50;99.90
7588;DHT22;3835;48.850;8.938;2023-07-30T08:01:08;18.40;99.90
7588;DHT22;3835;48.850;8.938;2023-07-30T08:03:35;18.50;99.90
7588;DHT22;3835;48.850;8.938;2023-07-30T08:06:02;18.70;99.90
7588;DHT22;3835;48.850;8.938;2023-07-30T08:08:29;18.80;99.90
7588;DHT22;3835;48.850;8.938;2023-07-30T08:10:57;18.60;99.90
7588;DHT22;3835;48.850;8.938;2023-07-30T08:13:24;18.90;99.90
7588;DHT22;3835;48.850;8.938;2023-07-30T08:15:51;19.10;99.90
7588;DHT22;3835;48.850;8.938;2023-07-30T08:18:17;19.40;99.90
7588;DHT22;3835;48.850;8.938;2023-07-30T08:20:44;19.70;99.90
7588;DHT22;3835;48.850;8.938;2023-07-30T08:23:11;20.00;99.90
7588;DHT22;3835;48.850;8.938;2023-07-30T08:25:37;20.50;99.90
7588;DHT22;3835;48.850;8.938;2023-07-30T08:28:06;20.50;99.90
7588;DHT22;3835;48.850;8.938;2023-07-30T08:30:32;20.60;99.90
7588;DHT22;3835;48.850;8.938;2023-07-30T08:32:59;20.70;99.90
7588;DHT22;3835;48.850;8.938;2023-07-30T08:35:26;20.70;99.90
7588;DHT22;3835;48.850;8.938;2023-07-30T08:37:54;20.60;99.90
7588;DHT22;3835;48.850;8.938;2023-07-30T08:40:21;20.60;99.90
7588;DHT22;3835;48.850;8.938;2023-07-30T08:42:49;20.80;99.90
7588;DHT22;3835;48.850;8.938;2023-07-30T08:45:17;20.90;99.90
7588;DHT22;3835;48.850;8.938;2023-07-30T08:47:45;21.00;99.90
7588;DHT22;3835;48.850;8.938;2023-07-30T08:50:12;20.70;99.90
7588;DHT22;3835;48.850;8.938;2023-07-30T08:52:40;20.60;99.90
7588;DHT22;3835;48.850;8.938;2023-07-30T08:55:07;20.30;99.90
7588;DHT22;3835;48.850;8.938;2023-07-30T08:57:35;20.40;99.90
7588;DHT22;3835;48.850;8.938;2023-07-30T09:00:05;20.30;99.90
7588;DHT22;3835;48.850;8.938;2023-07-30T09:02:38;20.30;99.90
7588;DHT22;3835;48.850;8.938;2023-07-30T09:05:06;20.50;99.90
7588;DHT22;3835;48.850;8.938;2023-07-30T09:07:33;20.70;99.90
7588;DHT22;3835;48.850;8.938;2023-07-30T09:10:00;20.70;99.90
7588;DHT22;3835;48.850;8.938;2023-07-30T09:12:29;20.60;99.90
7588;DHT22;3835;48.850;8.938;2023-07-30T09:14:55;20.40;99.90
7588;DHT22;3835;48.850;8.938;2023-07-30T09:17:22;20.40;99.90
7588;DHT22;3835;48.850;8.938;2023-07-30T09:19:52;20.60;99.90
7588;DHT22;3835;48.850;8.938;2023-07-30T09:22:25;20.40;99.90
7588;DHT22;3835;48.850;8.938;2023-07-30T09:24:52;20.20;99.90
7588;DHT22;3835;48.850;8.938;2023-07-30T09:27:21;20.20;99.90
7588;DHT22;3835;48.850;8.938;2023-07-30T09:29:51;20.20;99.90
7588;DHT22;3835;48.850;8.938;2023-07-30T09:32:18;20.40;99.90
7588;DHT22;3835;48.850;8.938;2023-07-30T09:34:45;20.60;99.90
7588;DHT22;3835;48.850;8.938;2023-07-30T09:37:14;20.70;99.90
7588;DHT22;3835;48.850;8.938;2023-07-30T09:39:42;20.60;99.90
7588;DHT22;3835;48.850;8.938;2023-07-30T09:42:09;20.70;99.90
7588;DHT22;3835;48.850;8.938;2023-07-30T09:44:37;20.90;99.90
7588;DHT22;3835;48.850;8.938;2023-07-30T09:47:05;21.30;99.90
7588;DHT22;3835;48.850;8.938;2023-07-30T09:49:35;21.60;99.90
7588;DHT22;3835;48.850;8.938;2023-07-30T09:52:03;21.70;99.90
7588;DHT22;3835;48.850;8.938;2023-07-30T09:54:32;21.80;99.90
7588;DHT22;3835;48.850;8.938;2023-07-30T09:56:59;21.50;99.90
7588;DHT22;3835;48.850;8.938;2023-07-30T09:59:26;21.40;99.90
7588;DHT22;3835;48.850;8.938;2023-07-30T10:01:53;21.30;99.90
7588;DHT22;3835;48.850;8.938;2023-07-30T10:04:22;21.40;99.90
7588;DHT22;3835;48.850;8.938;2023-07-30T10:06:51;21.00;99.90
7588;DHT22;3835;48.850;8.938;2023-07-30T10:09:20;21.30;99.90
7588;DHT22;3835;48.850;8.938;2023-07-30T10:11:51;21.70;99.90
7588;DHT22;3835;48.850;8.938;2023-07-30T10:14:22;22.00;99.90
7588;DHT22;3835;48.850;8.938;2023-07-30T10:16:52;22.10;99.90
7588;DHT22;3835;48.850;8.938;2023-07-30T10:19:22;22.20;99.90
7588;DHT22;3835;48.850;8.938;2023-07-30T10:21:49;22.20;99.90
7588;DHT22;3835;48.850;8.938;2023-07-30T10:24:16;21.80;99.90
7588;DHT22;3835;48.850;8.938;2023-07-30T10:26:43;21.80;99.90
7588;DHT22;3835;48.850;8.938;2023-07-30T10:29:12;22.20;99.90
7588;DHT22;3835;48.850;8.938;2023-07-30T10:31:39;22.10;99.90
7588;DHT22;3835;48.850;8.938;2023-07-30T10:34:07;21.60;99.90
7588;DHT22;3835;48.850;8.938;2023-07-30T10:36:41;21.70;99.90
7588;DHT22;3835;48.850;8.938;2023-07-30T10:39:14;22.10;99.90
7588;DHT22;3835;48.850;8.938;2023-07-30T10:41:42;22.20;99.90
7588;DHT22;3835;48.850;8.938;2023-07-30T10:44:19;22.30;99.90
7588;DHT22;3835;48.850;8.938;2023-07-30T10:46:48;22.20;99.90
7588;DHT22;3835;48.850;8.938;2023-07-30T10:49:15;21.40;99.90
7588;DHT22;3835;48.850;8.938;2023-07-30T10:51:41;21.10;99.90
7588;DHT22;3835;48.850;8.938;2023-07-30T10:54:08;21.00;99.90
7588;DHT22;3835;48.850;8.938;2023-07-30T10:56:37;20.70;99.90
7588;DHT22;3835;48.850;8.938;2023-07-30T10:59:06;20.50;99.90
7588;DHT22;3835;48.850;8.938;2023-07-30T11:01:38;20.30;99.90
7588;DHT22;3835;48.850;8.938;2023-07-30T11:04:08;19.90;99.90
7588;DHT22;3835;48.850;8.938;2023-07-30T11:06:35;19.80;99.90
7588;DHT22;3835;48.850;8.938;2023-07-30T11:09:01;19.40;99.90
7588;DHT22;3835;48.850;8.938;2023-07-30T11:11:29;19.20;99.90
7588;DHT22;3835;48.850;8.938;2023-07-30T11:14:00;18.80;99.90
7588;DHT22;3835;48.850;8.938;2023-07-30T11:16:29;18.80;99.90
7588;DHT22;3835;48.850;8.938;2023-07-30T11:18:59;19.00;99.90
7588;DHT22;3835;48.850;8.938;2023-07-30T11:21:26;19.30;99.90
7588;DHT22;3835;48.850;8.938;2023-07-30T11:23:53;19.70;99.90
7588;DHT22;3835;48.850;8.938;2023-07-30T11:26:21;20.10;99.90
7588;DHT22;3835;48.850;8.938;2023-07-30T11:28:48;20.70;99.90
7588;DHT22;3835;48.850;8.938;2023-07-30T11:31:17;20.70;99.90
7588;DHT22;3835;48.850;8.938;2023-07-30T11:33:48;20.80;99.90
7588;DHT22;3835;48.850;8.938;2023-07-30T11:36:22;20.90;99.90
7588;DHT22;3835;48.850;8.938;2023-07-30T11:38:49;20.50;99.90
7588;DHT22;3835;48.850;8.938;2023-07-30T11:41:18;20.30;99.90
7588;DHT22;3835;48.850;8.938;2023-07-30T11:43:47;20.50;99.90
7588;DHT22;3835;48.850;8.938;2023-07-30T11:46:15;20.90;99.90
7588;DHT22;3835;48.850;8.938;2023-07-30T11:48:45;21.10;99.90
7588;DHT22;3835;48.850;8.938;2023-07-30T11:51:24;20.90;99.90
7588;DHT22;3835;48.850;8.938;2023-07-30T11:53:53;21.00;99.90
7588;DHT22;3835;48.850;8.938;2023-07-30T11:56:21;21.20;99.90
7588;DHT22;3835;48.850;8.938;2023-07-30T11:58:49;21.10;99.90
7588;DHT22;3835;48.850;8.938;2023-07-30T12:01:17;21.30;99.90
7588;DHT22;3835;48.850;8.938;2023-07-30T12:03:44;21.60;99.90
7588;DHT22;3835;48.850;8.938;2023-07-30T12:06:12;22.00;99.90
7588;DHT22;3835;48.850;8.938;2023-07-30T12:08:40;21.80;99.90
7588;DHT22;3835;48.850;8.938;2023-07-30T12:11:08;22.10;99.90
7588;DHT22;3835;48.850;8.938;2023-07-30T12:13:42;21.90;99.90
7588;DHT22;3835;48.850;8.938;2023-07-30T12:16:11;21.00;99.90
7588;DHT22;3835;48.850;8.938;2023-07-30T12:18:39;20.90;99.90
7588;DHT22;3835;48.850;8.938;2023-07-30T12:21:07;20.80;99.90
7588;DHT22;3835;48.850;8.938;2023-07-30T12:23:36;20.70;99.90
7588;DHT22;3835;48.850;8.938;2023-07-30T12:26:05;20.80;99.90
7588;DHT22;3835;48.850;8.938;2023-07-30T12:28:32;20.80;99.90
7588;DHT22;3835;48.850;8.938;2023-07-30T12:30:59;20.90;99.90
7588;DHT22;3835;48.850;8.938;2023-07-30T12:33:26;21.10;99.90
7588;DHT22;3835;48.850;8.938;2023-07-30T12:35:53;21.40;99.90
7588;DHT22;3835;48.850;8.938;2023-07-30T12:38:20;21.80;99.90
7588;DHT22;3835;48.850;8.938;2023-07-30T12:40:47;22.30;99.90
7588;DHT22;3835;48.850;8.938;2023-07-30T12:43:17;22.00;99.90
7588;DHT22;3835;48.850;8.938;2023-07-30T12:45:46;21.80;99.90
7588;DHT22;3835;48.850;8.938;2023-07-30T12:48:14;22.00;99.90
7588;DHT22;3835;48.850;8.938;2023-07-30T12:50:41;22.10;99.90
7588;DHT22;3835;48.850;8.938;2023-07-30T12:53:08;22.10;99.90
7588;DHT22;3835;48.850;8.938;2023-07-30T12:55:36;22.00;99.90
7588;DHT22;3835;48.850;8.938;2023-07-30T12:58:04;21.90;99.90
7588;DHT22;3835;48.850;8.938;2023-07-30T13:00:33;22.00;99.90
7588;DHT22;3835;48.850;8.938;2023-07-30T13:03:01;22.40;99.90
7588;DHT22;3835;48.850;8.938;2023-07-30T13:05:29;22.20;99.90
7588;DHT22;3835;48.850;8.938;2023-07-30T13:07:56;21.90;99.90
7588;DHT22;3835;48.850;8.938;2023-07-30T13:10:24;21.40;99.90
7588;DHT22;3835;48.850;8.938;2023-07-30T13:12:51;21.30;99.90
7588;DHT22;3835;48.850;8.938;2023-07-30T13:15:18;21.10;99.90
7588;DHT22;3835;48.850;8.938;2023-07-30T13:17:47;20.40;99.90
7588;DHT22;3835;48.850;8.938;2023-07-30T13:20:14;20.40;99.90
7588;DHT22;3835;48.850;8.938;2023-07-30T13:22:41;20.60;99.90
7588;DHT22;3835;48.850;8.938;2023-07-30T13:25:08;20.80;99.90
7588;DHT22;3835;48.850;8.938;2023-07-30T13:27:35;21.00;99.90
7588;DHT22;3835;48.850;8.938;2023-07-30T13:30:02;20.90;99.90
7588;DHT22;3835;48.850;8.938;2023-07-30T13:32:29;20.80;99.90
7588;DHT22;3835;48.850;8.938;2023-07-30T13:34:57;20.70;99.90
7588;DHT22;3835;48.850;8.938;2023-07-30T13:37:24;20.80;99.90
7588;DHT22;3835;48.850;8.938;2023-07-30T13:39:51;20.80;99.90
7588;DHT22;3835;48.850;8.938;2023-07-30T13:42:17;20.60;99.90
7588;DHT22;3835;48.850;8.938;2023-07-30T13:44:44;20.60;99.90
7588;DHT22;3835;48.850;8.938;2023-07-30T13:47:11;20.80;99.90
7588;DHT22;3835;48.850;8.938;2023-07-30T13:49:38;20.90;99.90
7588;DHT22;3835;48.850;8.938;2023-07-30T13:52:06;20.90;99.90
7588;DHT22;3835;48.850;8.938;2023-07-30T13:54:33;20.90;99.90
7588;DHT22;3835;48.850;8.938;2023-07-30T13:57:02;21.00;99.90
7588;DHT22;3835;48.850;8.938;2023-07-30T13:59:29;21.00;99.90
7588;DHT22;3835;48.850;8.938;2023-07-30T14:01:56;21.10;99.90
7588;DHT22;3835;48.850;8.938;2023-07-30T14:04:23;21.10;99.90
7588;DHT22;3835;48.850;8.938;2023-07-30T14:06:51;21.30;99.90
7588;DHT22;3835;48.850;8.938;2023-07-30T14:09:19;21.20;99.90
7588;DHT22;3835;48.850;8.938;2023-07-30T14:11:46;21.50;99.90
7588;DHT22;3835;48.850;8.938;2023-07-30T14:14:13;21.70;99.90
7588;DHT22;3835;48.850;8.938;2023-07-30T14:16:40;21.50;99.90
7588;DHT22;3835;48.850;8.938;2023-07-30T14:19:07;21.40;99.90
7588;DHT22;3835;48.850;8.938;2023-07-30T14:21:34;21.30;99.90
7588;DHT22;3835;48.850;8.938;2023-07-30T14:24:00;21.30;99.90
7588;DHT22;3835;48.850;8.938;2023-07-30T14:26:28;21.30;99.90
7588;DHT22;3835;48.850;8.938;2023-07-30T14:28:55;21.40;99.90
7588;DHT22;3835;48.850;8.938;2023-07-30T14:31:22;21.40;99.90
7588;DHT22;3835;48.850;8.938;2023-07-30T14:33:49;21.40;99.90
7588;DHT22;3835;48.850;8.938;2023-07-30T14:36:15;21.10;99.90
7588;DHT22;3835;48.850;8.938;2023-07-30T14:38:42;21.30;99.90
7588;DHT22;3835;48.850;8.938;2023-07-30T14:41:09;21.40;99.90
7588;DHT22;3835;48.850;8.938;2023-07-30T14:43:37;21.60;99.90
7588;DHT22;3835;48.850;8.938;2023-07-30T14:46:04;21.70;99.90
7588;DHT22;3835;48.850;8.938;2023-07-30T14:48:32;21.40;99.90
7588;DHT22;3835;48.850;8.938;2023-07-30T14:50:59;21.40;99.90
7588;DHT22;3835;48.850;8.938;2023-07-30T14:53:25;21.20;99.90
7588;DHT22;3835;48.850;8.938;2023-07-30T14:55:52;21.20;99.90
7588;DHT22;3835;48.850;8.938;2023-07-30T14:58:19;21.30;99.90
7588;DHT22;3835;48.850;8.938;2023-07-30T15:00:47;21.40;99.90
7588;DHT22;3835;48.850;8.938;2023-07-30T15:03:14;21.20;99.90
7588;DHT22;3835;48.850;8.938;2023-07-30T15:05:41;21.00;99.90
7588;DHT22;3835;48.850;8.938;2023-07-30T15:08:07;21.10;99.90
7588;DHT22;3835;48.850;8.938;2023-07-30T15:10:34;21.20;99.90
7588;DHT22;3835;48.850;8.938;2023-07-30T15:13:01;20.80;99.90
7588;DHT22;3835;48.850;8.938;2023-07-30T15:15:28;20.90;99.90
7588;DHT22;3835;48.850;8.938;2023-07-30T15:17:56;20.70;99.90
7588;DHT22;3835;48.850;8.938;2023-07-30T15:20:22;20.50;99.90
7588;DHT22;3835;48.850;8.938;2023-07-30T15:22:49;20.60;99.90
7588;DHT22;3835;48.850;8.938;2023-07-30T15:25:16;20.40;99.90
7588;DHT22;3835;48.850;8.938;2023-07-30T15:27:43;20.20;99.90
7588;DHT22;3835;48.850;8.938;2023-07-30T15:30:10;20.20;99.90
7588;DHT22;3835;48.850;8.938;2023-07-30T15:32:42;20.40;99.90
7588;DHT22;3835;48.850;8.938;2023-07-30T15:35:10;20.60;99.90
7588;DHT22;3835;48.850;8.938;2023-07-30T15:37:37;20.70;99.90
7588;DHT22;3835;48.850;8.938;2023-07-30T15:40:05;20.70;99.90
7588;DHT22;3835;48.850;8.938;2023-07-30T15:42:32;20.50;99.90
7588;DHT22;3835;48.850;8.938;2023-07-30T15:44:59;20.40;99.90
7588;DHT22;3835;48.850;8.938;2023-07-30T15:47:26;20.30;99.90
7588;DHT22;3835;48.850;8.938;2023-07-30T15:49:53;20.20;99.90
7588;DHT22;3835;48.850;8.938;2023-07-30T15:52:21;20.50;99.90
7588;DHT22;3835;48.850;8.938;2023-07-30T15:54:47;20.60;99.90
7588;DHT22;3835;48.850;8.938;2023-07-30T15:57:14;20.70;99.90
7588;DHT22;3835;48.850;8.938;2023-07-30T15:59:44;20.90;99.90
7588;DHT22;3835;48.850;8.938;2023-07-30T16:02:11;20.90;99.90
7588;DHT22;3835;48.850;8.938;2023-07-30T16:04:37;20.90;99.90